This is the latest recevied weather packets stored in our database for station/object AD8IZ-13. If no packets are shown the sender has not sent any weather packets the latest 10 day(s).
| Time | Temp. | Humidity | Pressure | Rain* | Wind** | Luminosity | Snow |
|---|---|---|---|---|---|---|---|
| 1777585518 | 13.33° C | 52% | 1014.3 hPa | 0 mm | - | 342 W/m² | - |
| 1777584919 | 13.89° C | 51% | 1014.3 hPa | 0 mm | - | 218 W/m² | - |
| 1777584319 | 13.89° C | 51% | 1014.3 hPa | 0 mm | - | 482 W/m² | - |
| 1777583719 | 14.44° C | 51% | 1014.2 hPa | 0 mm | - | 523 W/m² | - |
| 1777583121 | 13.89° C | 51% | 1014.4 hPa | 0 mm | - | 573 W/m² | - |
| 1777582517 | 13.89° C | 53% | 1014.5 hPa | 0 mm | - | 591 W/m² | - |
| 1777581917 | 12.78° C | 57% | 1014.7 hPa | 0 mm | - | 570 W/m² | - |
| 1777581320 | 12.78° C | 56% | 1014.8 hPa | 0 mm | - | 243 W/m² | - |
| 1777580720 | 12.78° C | 57% | 1014.7 hPa | 0 mm | - | 498 W/m² | - |
| 1777580117 | 12.78° C | 57% | 1014.7 hPa | 0 mm | - | 524 W/m² | - |
| 1777579517 | 12.22° C | 59% | 1014.7 hPa | 0 mm | - | 296 W/m² | - |
| 1777578918 | 12.78° C | 59% | 1014.7 hPa | 0 mm | - | 257 W/m² | - |
| 1777578318 | 12.78° C | 59% | 1014.7 hPa | 0 mm | - | 327 W/m² | - |
| 1777577718 | 12.78° C | 61% | 1014.8 hPa | 0 mm | - | 371 W/m² | - |
| 1777577118 | 12.22° C | 65% | 1014.9 hPa | 0 mm | - | 680 W/m² | - |
| 1777576518 | 11.67° C | 67% | 1015.1 hPa | 0 mm | - | 728 W/m² | - |
| 1777575919 | 11.67° C | 70% | 1015.2 hPa | 0 mm | - | 299 W/m² | - |
| 1777575320 | 12.22° C | 65% | 1015.1 hPa | 0 mm | - | 151 W/m² | - |
| 1777574719 | 12.22° C | 67% | 1015.1 hPa | 0 mm | - | 943 W/m² | - |
| 1777574119 | 11.67° C | 68% | 1015.2 hPa | 0 mm | - | 905 W/m² | - |
| 1777573516 | 11.11° C | 72% | 1015.3 hPa | 0 mm | - | 945 W/m² | - |
| 1777572920 | 10.56° C | 70% | 1015.4 hPa | 0 mm | - | 786 W/m² | - |
| 1777572319 | 10° C | 74% | 1015.4 hPa | 0 mm | - | 563 W/m² | - |
| 1777571722 | 10.56° C | 75% | 1015.4 hPa | 0 mm | - | 595 W/m² | - |
| 1777571117 | 11.67° C | 68% | 1015.2 hPa | 0 mm | - | 173 W/m² | - |
* Rain latest hour (hover to see other rain measurements)
** Current wind speed in m/s (hover to see current wind gust speed)